Time;durP1;ratioP1;P1;durP2;ratioP2;P2;SDS_P1;SDS_P2;PMS_P1;PMS_P2;Temp;Humidity;BMP_temperature;BMP_pressure;BME280_temperature;BME280_humidity;BME280_pressure;Samples;Min_cycle;Max_cycle;Signal;HPM_P1;HPM_P2
2021/11/11 00:02:07;;;;;;;;;;;;;;;;;;5062379;28;20518;-81
2021/11/11 00:04:34;;;;;;;;;;;;;;;;;;5061246;28;19948;-83
2021/11/11 00:07:02;;;;;;;;;;;;;;;;;;5061513;28;19920;-83
2021/11/11 00:09:28;;;;;;;;;;;;;;;;;;5062506;28;20016;-82
2021/11/11 00:11:54;;;;;;;;;;;;;;;;;;5060510;28;20008;-82
2021/11/11 00:14:19;;;;;;;;;;;;;;;;;;5060887;28;20624;-82
2021/11/11 00:16:45;;;;;;;;;;;;;;;;;;5062065;28;19916;-82
2021/11/11 00:19:11;;;;;;;;;;;;;;;;;;5057025;28;19935;-82
2021/11/11 00:21:37;;;;;;;;;;;;;;;;;;5061701;28;19919;-82
2021/11/11 00:24:03;;;;;;;;;;;;;;;;;;5059675;28;20011;-82
2021/11/11 00:26:29;;;;;;;;;;;;;;;;;;5061001;28;19924;-83
2021/11/11 00:28:55;;;;;;;;;;;;;;;;;;5062552;28;19956;-83
2021/11/11 00:31:21;;;;;;;;;;;;;;;;;;5060408;28;19912;-82
2021/11/11 00:33:47;;;;;;;;;;;;;;;;;;5061190;28;19912;-82
2021/11/11 00:36:13;;;;;;;;;;;;;;;;;;5061440;28;19908;-83
2021/11/11 00:38:39;;;;;;;;;;;;;;;;;;5061975;28;19912;-83
2021/11/11 00:41:05;;;;;;;;;;;;;;;;;;5063086;28;19916;-82
2021/11/11 00:43:31;;;;;;;;;;;;;;;;;;5060820;28;19913;-83
2021/11/11 00:45:57;;;;;;;;;;;;;;;;;;5060176;28;19916;-83
2021/11/11 00:48:23;;;;;;;;;;;;;;;;;;5060410;28;20422;-83
2021/11/11 00:50:49;;;;;;;;;;;;;;;;;;5043988;28;19913;-83
2021/11/11 00:53:15;;;;;;;;;;;;;;;;;;5061264;28;19919;-82
2021/11/11 00:55:41;;;;;;;;;;;;;;;;;;5059500;28;19919;-82
2021/11/11 00:58:07;;;;;;;;;;;;;;;;;;5059644;28;19927;-83
2021/11/11 01:00:36;;;;;;;;;;;;;;;;;;5058546;28;20019;-82
2021/11/11 01:03:04;;;;;;;;;;;;;;;;;;5057713;28;19971;-90
2021/11/11 01:05:30;;;;;;;;;;;;;;;;;;5061210;28;19920;-89
2021/11/11 01:07:56;;;;;;;;;;;;;;;;;;5062058;28;19920;-90
2021/11/11 01:10:22;;;;;;;;;;;;;;;;;;5042251;28;19924;-90
2021/11/11 01:12:48;;;;;;;;;;;;;;;;;;5043627;28;20502;-90
2021/11/11 01:15:14;;;;;;;;;;;;;;;;;;5059131;28;20015;-91
2021/11/11 01:17:40;;;;;;;;;;;;;;;;;;5057335;28;19975;-89
2021/11/11 01:20:08;;;;;;;;;;;;;;;;;;5061341;28;19943;-89
2021/11/11 01:22:34;;;;;;;;;;;;;;;;;;5058730;28;20373;-89
2021/11/11 01:25:00;;;;;;;;;;;;;;;;;;5059416;28;19962;-89
2021/11/11 01:27:26;;;;;;;;;;;;;;;;;;5060986;28;19924;-88
2021/11/11 01:29:52;;;;;;;;;;;;;;;;;;5041882;28;19919;-90
2021/11/11 01:32:18;;;;;;;;;;;;;;;;;;5058326;28;19999;-90
2021/11/11 01:34:45;;;;;;;;;;;;;;;;;;5060419;28;19912;-89
2021/11/11 01:37:10;;;;;;;;;;;;;;;;;;5057841;28;20377;-88
2021/11/11 01:39:36;;;;;;;;;;;;;;;;;;5039907;28;19923;-89
2021/11/11 01:42:02;;;;;;;;;;;;;;;;;;5057646;28;19912;-89
2021/11/11 01:44:28;;;;;;;;;;;;;;;;;;5059090;28;19913;-90
2021/11/11 01:46:54;;;;;;;;;;;;;;;;;;5061650;28;19924;-89
2021/11/11 01:49:20;;;;;;;;;;;;;;;;;;5056920;28;19912;-89
2021/11/11 01:51:49;;;;;;;;;;;;;;;;;;5057952;28;19916;-90
2021/11/11 01:54:15;;;;;;;;;;;;;;;;;;5059849;28;19916;-90
2021/11/11 01:56:41;;;;;;;;;;;;;;;;;;5061431;28;19994;-89
2021/11/11 01:59:07;;;;;;;;;;;;;;;;;;5061707;28;19938;-89
2021/11/11 02:01:33;;;;;;;;;;;;;;;;;;5060532;28;19912;-88
2021/11/11 02:03:59;;;;;;;;;;;;;;;;;;5063275;28;19920;-89
2021/11/11 02:06:25;;;;;;;;;;;;;;;;;;5063115;28;19984;-88
2021/11/11 02:08:51;;;;;;;;;;;;;;;;;;5063908;28;19936;-89
2021/11/11 02:11:17;;;;;;;;;;;;;;;;;;5064997;28;19912;-88
2021/11/11 02:13:43;;;;;;;;;;;;;;;;;;5064203;28;19912;-88
2021/11/11 02:16:09;;;;;;;;;;;;;;;;;;5062891;28;19934;-88
2021/11/11 02:18:34;;;;;;;;;;;;;;;;;;5056681;28;19975;-88
2021/11/11 02:21:00;;;;;;;;;;;;;;;;;;5061105;28;19944;-89
2021/11/11 02:23:26;;;;;;;;;;;;;;;;;;5063558;28;20341;-89
2021/11/11 02:25:52;;;;;;;;;;;;;;;;;;5062477;28;19912;-87
2021/11/11 02:28:18;;;;;;;;;;;;;;;;;;5060726;28;19920;-88
2021/11/11 02:30:44;;;;;;;;;;;;;;;;;;5061506;28;19959;-88
2021/11/11 02:33:10;;;;;;;;;;;;;;;;;;5062931;28;19999;-88
2021/11/11 02:35:36;;;;;;;;;;;;;;;;;;5061866;28;19935;-87
2021/11/11 02:38:02;;;;;;;;;;;;;;;;;;5063891;28;20662;-88
2021/11/11 02:40:28;;;;;;;;;;;;;;;;;;5062186;28;19955;-89
2021/11/11 02:42:54;;;;;;;;;;;;;;;;;;5062649;28;19955;-89
2021/11/11 02:45:20;;;;;;;;;;;;;;;;;;5059832;28;19991;-88
2021/11/11 02:47:46;;;;;;;;;;;;;;;;;;5059239;28;20274;-88
2021/11/11 02:50:12;;;;;;;;;;;;;;;;;;5062888;28;20475;-88
2021/11/11 02:52:38;;;;;;;;;;;;;;;;;;5061153;28;19912;-88
2021/11/11 02:55:04;;;;;;;;;;;;;;;;;;5060382;28;19912;-88
2021/11/11 02:57:30;;;;;;;;;;;;;;;;;;5062968;28;19952;-89
2021/11/11 02:59:56;;;;;;;;;;;;;;;;;;5063302;28;19919;-89
2021/11/11 03:02:22;;;;;;;;;;;;;;;;;;5062919;28;19916;-88
2021/11/11 03:04:48;;;;;;;;;;;;;;;;;;5061478;28;20752;-89
2021/11/11 03:07:14;;;;;;;;;;;;;;;;;;5062469;28;20304;-87
2021/11/11 03:09:40;;;;;;;;;;;;;;;;;;5062821;28;20034;-87
2021/11/11 03:12:07;;;;;;;;;;;;;;;;;;5043079;28;20425;-87
2021/11/11 03:14:32;;;;;;;;;;;;;;;;;;5043761;28;19913;-88
2021/11/11 03:16:59;;;;;;;;;;;;;;;;;;5065022;28;19920;-88
2021/11/11 03:19:25;;;;;;;;;;;;;;;;;;5061953;28;20491;-88
2021/11/11 03:21:51;;;;;;;;;;;;;;;;;;5061447;28;19912;-88
2021/11/11 03:24:17;;;;;;;;;;;;;;;;;;5044718;28;19919;-88
2021/11/11 03:26:43;;;;;;;;;;;;;;;;;;5061360;28;19921;-88
2021/11/11 03:29:09;;;;;;;;;;;;;;;;;;5065245;28;19924;-87
2021/11/11 03:31:35;;;;;;;;;;;;;;;;;;5064856;28;20055;-87
2021/11/11 03:34:00;;;;;;;;;;;;;;;;;;5063255;28;20035;-87
2021/11/11 03:36:26;;;;;;;;;;;;;;;;;;5043594;28;19962;-87
2021/11/11 03:38:52;;;;;;;;;;;;;;;;;;5061443;28;19912;-88
2021/11/11 03:41:18;;;;;;;;;;;;;;;;;;5059573;28;20850;-88
2021/11/11 03:43:44;;;;;;;;;;;;;;;;;;5044813;28;20003;-87
2021/11/11 03:46:13;;;;;;;;;;;;;;;;;;5060501;28;19955;-87
2021/11/11 03:48:39;;;;;;;;;;;;;;;;;;5059990;28;19913;-88
2021/11/11 03:51:05;;;;;;;;;;;;;;;;;;5041460;28;20741;-88
2021/11/11 03:53:31;;;;;;;;;;;;;;;;;;5057458;28;19920;-87
2021/11/11 03:55:57;;;;;;;;;;;;;;;;;;5063186;28;19909;-89
2021/11/11 03:58:23;;;;;;;;;;;;;;;;;;5060942;28;19923;-88
2021/11/11 04:00:49;;;;;;;;;;;;;;;;;;5042760;28;19916;-88
2021/11/11 04:03:15;;;;;;;;;;;;;;;;;;5042427;28;19976;-86
2021/11/11 04:05:41;;;;;;;;;;;;;;;;;;5062300;28;20022;-87
2021/11/11 04:08:07;;;;;;;;;;;;;;;;;;5064343;28;20408;-87
2021/11/11 04:10:33;;;;;;;;;;;;;;;;;;5061379;28;20365;-88
2021/11/11 04:12:58;;;;;;;;;;;;;;;;;;5060676;28;19912;-87
2021/11/11 04:15:24;;;;;;;;;;;;;;;;;;5041471;28;20317;-88
2021/11/11 04:17:50;;;;;;;;;;;;;;;;;;5059978;28;19917;-88
2021/11/11 04:20:16;;;;;;;;;;;;;;;;;;5062977;28;19912;-86
2021/11/11 04:22:42;;;;;;;;;;;;;;;;;;5059900;28;20007;-90
2021/11/11 04:25:10;;;;;;;;;;;;;;;;;;5044420;28;20034;-88
2021/11/11 04:27:44;;;;;;;;;;;;;;;;;;5057599;28;19928;-88
2021/11/11 04:30:27;;;;;;;;;;;;;;;;;;5063008;28;19912;-88
2021/11/11 04:32:53;;;;;;;;;;;;;;;;;;5060587;28;20385;-87
2021/11/11 04:35:19;;;;;;;;;;;;;;;;;;5057615;28;20141;-87
2021/11/11 04:37:57;;;;;;;;;;;;;;;;;;5060829;28;19923;-87
2021/11/11 05:04:34;;;;;;;;;;;;;;;;;;5061992;28;19920;-88
2021/11/11 05:07:00;;;;;;;;;;;;;;;;;;5041977;28;19927;-87
2021/11/11 05:09:26;;;;;;;;;;;;;;;;;;5060061;28;20007;-87
2021/11/11 05:11:51;;;;;;;;;;;;;;;;;;5040580;28;19912;-87
2021/11/11 05:14:18;;;;;;;;;;;;;;;;;;5060893;28;19960;-88
2021/11/11 05:16:44;;;;;;;;;;;;;;;;;;5059178;28;20424;-88
2021/11/11 05:19:09;;;;;;;;;;;;;;;;;;5058680;28;19912;-87
2021/11/11 05:21:35;;;;;;;;;;;;;;;;;;5057583;28;19912;-87
2021/11/11 05:24:01;;;;;;;;;;;;;;;;;;5058271;28;19912;-87
2021/11/11 05:26:27;;;;;;;;;;;;;;;;;;5039389;28;19920;-88
2021/11/11 05:28:53;;;;;;;;;;;;;;;;;;5059130;28;20324;-87
2021/11/11 05:31:19;;;;;;;;;;;;;;;;;;5058057;28;20422;-87
2021/11/11 05:33:45;;;;;;;;;;;;;;;;;;5058526;28;19959;-88
2021/11/11 05:36:11;;;;;;;;;;;;;;;;;;5041591;28;20034;-86
2021/11/11 05:38:37;;;;;;;;;;;;;;;;;;5059169;28;20004;-87
2021/11/11 05:41:03;;;;;;;;;;;;;;;;;;5060777;28;20525;-86
2021/11/11 05:43:29;;;;;;;;;;;;;;;;;;5055250;28;19917;-86
2021/11/11 05:45:55;;;;;;;;;;;;;;;;;;5053274;28;20329;-87
2021/11/11 05:48:21;;;;;;;;;;;;;;;;;;5058486;28;20360;-88
2021/11/11 05:50:47;;;;;;;;;;;;;;;;;;5060286;28;20351;-88
2021/11/11 05:53:13;;;;;;;;;;;;;;;;;;5044045;28;20445;-86
2021/11/11 05:55:39;;;;;;;;;;;;;;;;;;5048364;28;19913;-88
2021/11/11 05:58:05;;;;;;;;;;;;;;;;;;5057212;28;20300;-87
2021/11/11 06:00:31;;;;;;;;;;;;;;;;;;5058743;28;20381;-87
2021/11/11 06:02:57;;;;;;;;;;;;;;;;;;5061457;28;19920;-88
2021/11/11 06:05:25;;;;;;;;;;;;;;;;;;5049192;28;19951;-87
2021/11/11 06:07:51;;;;;;;;;;;;;;;;;;5061740;28;20442;-87
2021/11/11 06:10:17;;;;;;;;;;;;;;;;;;5055147;28;19916;-87
2021/11/11 06:12:43;;;;;;;;;;;;;;;;;;5056907;28;19912;-88
2021/11/11 06:15:09;;;;;;;;;;;;;;;;;;5057754;28;20451;-88
2021/11/11 06:17:35;;;;;;;;;;;;;;;;;;5043707;28;20027;-89
2021/11/11 06:20:03;;;;;;;;;;;;;;;;;;5059650;28;20004;-86
2021/11/11 06:22:29;;;;;;;;;;;;;;;;;;5060810;28;19912;-89
2021/11/11 06:24:55;;;;;;;;;;;;;;;;;;5044681;28;19947;-87
2021/11/11 06:27:21;;;;;;;;;;;;;;;;;;5059510;28;19917;-87
2021/11/11 06:29:47;;;;;;;;;;;;;;;;;;5035421;28;19920;-86
2021/11/11 06:32:13;;;;;;;;;;;;;;;;;;5055968;28;20413;-87
2021/11/11 06:34:39;;;;;;;;;;;;;;;;;;5061084;28;19947;-86
2021/11/11 06:37:06;;;;;;;;;;;;;;;;;;5043641;28;19950;-86
2021/11/11 06:39:32;;;;;;;;;;;;;;;;;;5056331;28;19924;-85
2021/11/11 06:41:58;;;;;;;;;;;;;;;;;;5045894;28;20128;-85
2021/11/11 06:44:24;;;;;;;;;;;;;;;;;;5041693;28;19908;-85
2021/11/11 06:46:50;;;;;;;;;;;;;;;;;;5053495;28;19990;-85
2021/11/11 06:49:16;;;;;;;;;;;;;;;;;;5060285;28;19916;-83
2021/11/11 06:51:42;;;;;;;;;;;;;;;;;;5062755;28;20369;-85
2021/11/11 06:54:08;;;;;;;;;;;;;;;;;;5062315;28;19935;-85
2021/11/11 06:56:34;;;;;;;;;;;;;;;;;;5061337;28;19912;-85
2021/11/11 06:59:00;;;;;;;;;;;;;;;;;;5064358;28;19912;-85
2021/11/11 07:01:26;;;;;;;;;;;;;;;;;;5055595;28;20381;-84
2021/11/11 07:03:52;;;;;;;;;;;;;;;;;;5062028;28;19938;-85
2021/11/11 07:06:18;;;;;;;;;;;;;;;;;;5057219;28;19948;-85
2021/11/11 07:08:44;;;;;;;;;;;;;;;;;;5061711;28;20471;-83
2021/11/11 07:11:10;;;;;;;;;;;;;;;;;;5061015;28;19916;-84
2021/11/11 07:13:36;;;;;;;;;;;;;;;;;;5059189;28;19912;-85
2021/11/11 07:16:03;;;;;;;;;;;;;;;;;;5055467;28;19916;-84
2021/11/11 07:18:28;;;;;;;;;;;;;;;;;;5038064;28;20205;-86
2021/11/11 07:20:54;;;;;;;;;;;;;;;;;;5045433;28;20443;-84
2021/11/11 07:23:22;;;;;;;;;;;;;;;;;;5055701;28;19916;-84
2021/11/11 07:25:49;;;;;;;;;;;;;;;;;;5061355;28;19922;-85
2021/11/11 07:28:15;;;;;;;;;;;;;;;;;;5060331;28;19931;-85
2021/11/11 07:30:41;;;;;;;;;;;;;;;;;;5061001;28;20377;-89
2021/11/11 07:33:07;;;;;;;;;;;;;;;;;;5063505;28;19947;-90
2021/11/11 07:35:34;;;;;;;;;;;;;;;;;;5062743;28;20025;-90
2021/11/11 07:38:00;;;;;;;;;;;;;;;;;;5064729;28;19912;-93
2021/11/11 07:40:26;;;;;;;;;;;;;;;;;;5065976;28;19935;-93
2021/11/11 07:42:52;;;;;;;;;;;;;;;;;;5071797;28;19908;-93
2021/11/11 07:45:24;;;;;;;;;;;;;;;;;;5070986;28;19912;-94
2021/11/11 07:47:52;;;;;;;;;;;;;;;;;;5044691;28;19930;-92
2021/11/11 07:50:17;;;;;;;;;;;;;;;;;;5061092;28;20003;-89
2021/11/11 07:52:43;;;;;;;;;;;;;;;;;;5060548;28;20011;-90
2021/11/11 07:55:09;;;;;;;;;;;;;;;;;;5061453;28;19954;-88
2021/11/11 07:57:35;;;;;;;;;;;;;;;;;;5062674;28;20027;-92
2021/11/11 08:00:01;;;;;;;;;;;;;;;;;;5062690;28;20436;-91
2021/11/11 08:02:28;;;;;;;;;;;;;;;;;;5062771;28;19927;-89
2021/11/11 08:04:54;;;;;;;;;;;;;;;;;;5064550;28;19912;-92
2021/11/11 08:07:20;;;;;;;;;;;;;;;;;;5048231;28;20385;-92
2021/11/11 08:09:46;;;;;;;;;;;;;;;;;;5048829;28;19917;-89
2021/11/11 08:12:11;;;;;;;;;;;;;;;;;;5066351;28;19908;-89
2021/11/11 08:14:39;;;;;;;;;;;;;;;;;;5047618;28;19912;-91
2021/11/11 08:17:05;;;;;;;;;;;;;;;;;;5046545;28;19916;-91
2021/11/11 08:19:31;;;;;;;;;;;;;;;;;;5046984;28;20198;-94
2021/11/11 08:21:59;;;;;;;;;;;;;;;;;;5065690;28;20361;-95
2021/11/11 08:24:25;;;;;;;;;;;;;;;;;;5058637;28;19978;-94
2021/11/11 08:26:51;;;;;;;;;;;;;;;;;;5049374;28;20029;-92
2021/11/11 08:29:17;;;;;;;;;;;;;;;;;;5049166;28;19920;-91
2021/11/11 08:31:43;;;;;;;;;;;;;;;;;;5047529;28;20917;-92
2021/11/11 08:34:09;;;;;;;;;;;;;;;;;;5051044;28;20640;-95
2021/11/11 08:36:35;;;;;;;;;;;;;;;;;;5051269;28;19924;-95
2021/11/11 08:39:01;;;;;;;;;;;;;;;;;;5048398;28;19912;-90
2021/11/11 08:41:27;;;;;;;;;;;;;;;;;;5074422;28;19958;-93
2021/11/11 08:43:53;;;;;;;;;;;;;;;;;;5050209;28;19916;-96
2021/11/11 08:46:19;;;;;;;;;;;;;;;;;;5069770;28;19912;-96
2021/11/11 08:48:46;;;;;;;;;;;;;;;;;;5066608;28;19923;-93
2021/11/11 08:51:13;;;;;;;;;;;;;;;;;;5069678;28;20373;-96
2021/11/11 08:53:39;;;;;;;;;;;;;;;;;;5052829;28;19912;-96
2021/11/11 08:56:05;;;;;;;;;;;;;;;;;;5074493;28;19919;-96
2021/11/11 08:58:36;;;;;;;;;;;;;;;;;;5072193;28;19927;-96
2021/11/11 09:01:04;;;;;;;;;;;;;;;;;;5065715;28;20402;-93
2021/11/11 09:03:30;;;;;;;;;;;;;;;;;;5047021;28;20396;-94
2021/11/11 09:05:56;;;;;;;;;;;;;;;;;;5061154;28;20338;-92
2021/11/11 09:08:22;;;;;;;;;;;;;;;;;;5046990;28;19913;-89
2021/11/11 09:10:49;;;;;;;;;;;;;;;;;;5045963;28;20415;-93
2021/11/11 09:13:15;;;;;;;;;;;;;;;;;;5044434;28;19922;-88
2021/11/11 09:15:41;;;;;;;;;;;;;;;;;;5056471;28;19913;-88
2021/11/11 09:18:10;;;;;;;;;;;;;;;;;;5051563;28;19939;-87
2021/11/11 09:20:36;;;;;;;;;;;;;;;;;;5042285;28;20548;-87
2021/11/11 09:23:02;;;;;;;;;;;;;;;;;;5061549;28;20007;-87
2021/11/11 09:25:30;;;;;;;;;;;;;;;;;;5055482;28;20003;-85
2021/11/11 09:27:56;;;;;;;;;;;;;;;;;;5049577;28;20372;-86
2021/11/11 09:30:22;;;;;;;;;;;;;;;;;;5046369;28;19958;-85
2021/11/11 09:32:48;;;;;;;;;;;;;;;;;;5061184;28;19920;-86
2021/11/11 09:35:14;;;;;;;;;;;;;;;;;;5041524;28;19913;-85
2021/11/11 09:37:40;;;;;;;;;;;;;;;;;;5057875;28;19982;-85
2021/11/11 09:40:06;;;;;;;;;;;;;;;;;;5056804;28;19909;-86
2021/11/11 09:42:32;;;;;;;;;;;;;;;;;;5056610;28;19912;-85
2021/11/11 09:44:58;;;;;;;;;;;;;;;;;;5059195;28;20699;-85
2021/11/11 09:47:23;;;;;;;;;;;;;;;;;;5059999;28;19948;-86
2021/11/11 09:49:49;;;;;;;;;;;;;;;;;;5058967;28;20389;-85
2021/11/11 09:52:17;;;;;;;;;;;;;;;;;;5057224;28;19912;-87
2021/11/11 10:00:13;;;;;;;;;;;;;;;;;;5056469;28;19983;-85
2021/11/11 10:02:39;;;;;;;;;;;;;;;;;;5045575;28;19920;-85
2021/11/11 10:05:05;;;;;;;;;;;;;;;;;;5059155;28;19912;-85
2021/11/11 10:07:31;;;;;;;;;;;;;;;;;;5056810;28;19912;-86
2021/11/11 10:09:56;;;;;;;;;;;;;;;;;;5056660;28;19912;-85
2021/11/11 10:12:22;;;;;;;;;;;;;;;;;;5056604;28;20297;-86
2021/11/11 10:14:48;;;;;;;;;;;;;;;;;;5060315;28;19920;-85
2021/11/11 10:17:16;;;;;;;;;;;;;;;;;;5059029;28;19920;-86
2021/11/11 10:19:41;;;;;;;;;;;;;;;;;;5057459;28;19939;-86
2021/11/11 10:22:10;;;;;;;;;;;;;;;;;;5056676;28;20364;-86
2021/11/11 10:24:47;;;;;;;;;;;;;;;;;;5060014;28;19987;-86
2021/11/11 10:27:24;;;;;;;;;;;;;;;;;;5061436;28;19951;-86
2021/11/11 10:29:50;;;;;;;;;;;;;;;;;;5049619;28;20450;-86
2021/11/11 10:32:16;;;;;;;;;;;;;;;;;;5063254;28;19916;-86
2021/11/11 10:34:42;;;;;;;;;;;;;;;;;;5061151;28;20308;-87
2021/11/11 10:37:07;;;;;;;;;;;;;;;;;;5043235;28;19920;-86
2021/11/11 10:39:33;;;;;;;;;;;;;;;;;;5060124;28;19913;-85
2021/11/11 10:42:00;;;;;;;;;;;;;;;;;;5061837;28;20184;-86
2021/11/11 10:44:26;;;;;;;;;;;;;;;;;;5063131;28;19969;-86
2021/11/11 10:46:51;;;;;;;;;;;;;;;;;;5062166;28;19958;-86
2021/11/11 10:49:17;;;;;;;;;;;;;;;;;;5059979;28;19920;-86
2021/11/11 10:51:43;;;;;;;;;;;;;;;;;;5059930;28;19912;-86
2021/11/11 10:54:09;;;;;;;;;;;;;;;;;;5060477;28;19912;-86
2021/11/11 10:56:35;;;;;;;;;;;;;;;;;;5063137;28;20365;-85
2021/11/11 10:59:01;;;;;;;;;;;;;;;;;;5062186;28;20327;-86
2021/11/11 11:01:27;;;;;;;;;;;;;;;;;;5060051;28;19912;-87
2021/11/11 11:03:57;;;;;;;;;;;;;;;;;;5059928;28;19926;-86
2021/11/11 11:06:23;;;;;;;;;;;;;;;;;;5059743;28;19959;-86
2021/11/11 11:08:49;;;;;;;;;;;;;;;;;;5063595;28;19942;-86
2021/11/11 11:11:15;;;;;;;;;;;;;;;;;;5062067;28;19908;-85
2021/11/11 11:13:41;;;;;;;;;;;;;;;;;;5061117;28;19978;-86
2021/11/11 11:16:07;;;;;;;;;;;;;;;;;;5059812;28;19947;-86
2021/11/11 11:18:33;;;;;;;;;;;;;;;;;;5044325;28;19999;-86
2021/11/11 11:20:59;;;;;;;;;;;;;;;;;;5048341;28;20352;-86
2021/11/11 11:23:25;;;;;;;;;;;;;;;;;;5062728;28;19909;-85
2021/11/11 11:25:51;;;;;;;;;;;;;;;;;;5050313;28;19909;-87
2021/11/11 11:28:17;;;;;;;;;;;;;;;;;;5039879;28;19912;-86
2021/11/11 11:30:44;;;;;;;;;;;;;;;;;;5059151;28;20031;-86
2021/11/11 11:33:09;;;;;;;;;;;;;;;;;;5059844;28;19913;-86
2021/11/11 11:35:35;;;;;;;;;;;;;;;;;;5063040;28;20506;-87
2021/11/11 11:38:01;;;;;;;;;;;;;;;;;;5050467;28;19913;-87
2021/11/11 11:40:27;;;;;;;;;;;;;;;;;;5057784;28;19912;-86
2021/11/11 11:42:54;;;;;;;;;;;;;;;;;;5059252;28;19912;-87
2021/11/11 11:45:20;;;;;;;;;;;;;;;;;;5062971;28;19938;-86
2021/11/11 11:48:18;;;;;;;;;;;;;;;;;;5048111;28;20019;-86
2021/11/11 11:50:35;;;;;;;;;;;;;;;;;;5061969;28;19942;-86
2021/11/11 11:53:03;;;;;;;;;;;;;;;;;;5061402;28;19908;-86
2021/11/11 11:55:36;;;;;;;;;;;;;;;;;;5058645;28;20712;-86
2021/11/11 11:58:07;;;;;;;;;;;;;;;;;;5059287;28;20392;-87
2021/11/11 12:06:09;;;;;;;;;;;;;;;;;;5062675;28;20478;-87
2021/11/11 12:08:41;;;;;;;;;;;;;;;;;;5062506;28;19935;-86
2021/11/11 12:13:54;;;;;;;;;;;;;;;;;;5052694;28;20019;-86
2021/11/11 12:16:29;;;;;;;;;;;;;;;;;;5058919;28;19918;-87
2021/11/11 12:40:40;;;;;;;;;;;;;;;;;;5049949;28;19919;-86
2021/11/11 12:43:06;;;;;;;;;;;;;;;;;;5053203;28;19912;-85
2021/11/11 12:45:34;;;;;;;;;;;;;;;;;;5056741;28;19919;-86
2021/11/11 12:48:04;;;;;;;;;;;;;;;;;;5043075;28;19912;-87
2021/11/11 12:50:30;;;;;;;;;;;;;;;;;;5060535;28;19912;-86
2021/11/11 12:52:56;;;;;;;;;;;;;;;;;;5059578;28;19915;-86
2021/11/11 12:55:27;;;;;;;;;;;;;;;;;;5035933;28;19909;-87
2021/11/11 12:57:53;;;;;;;;;;;;;;;;;;5051783;28;20007;-85
2021/11/11 13:00:19;;;;;;;;;;;;;;;;;;5057419;28;20028;-87
2021/11/11 13:02:45;;;;;;;;;;;;;;;;;;5061460;28;19927;-86
2021/11/11 13:05:11;;;;;;;;;;;;;;;;;;5042138;28;19958;-86
2021/11/11 13:07:37;;;;;;;;;;;;;;;;;;5057062;28;19953;-86
2021/11/11 13:10:11;;;;;;;;;;;;;;;;;;5057271;28;19958;-86
2021/11/11 13:12:37;;;;;;;;;;;;;;;;;;5057071;28;19912;-86
2021/11/11 13:15:06;;;;;;;;;;;;;;;;;;5043960;28;19999;-86
2021/11/11 13:17:31;;;;;;;;;;;;;;;;;;5045282;28;20388;-86
2021/11/11 13:20:00;;;;;;;;;;;;;;;;;;5059340;28;19966;-86
2021/11/11 13:22:37;;;;;;;;;;;;;;;;;;5057297;28;19916;-86
2021/11/11 16:22:06;;;;;;;;;;;;;;;;;;5000869;28;20394;-86
2021/11/11 16:27:27;;;;;;;;;;;;;;;;;;5003269;28;19917;-85
2021/11/11 16:29:53;;;;;;;;;;;;;;;;;;5009267;28;19963;-84
2021/11/11 16:32:19;;;;;;;;;;;;;;;;;;5010624;28;20170;-84
2021/11/11 16:34:45;;;;;;;;;;;;;;;;;;5007850;28;20512;-83
2021/11/11 16:37:11;;;;;;;;;;;;;;;;;;5010722;28;19936;-84
2021/11/11 16:39:37;;;;;;;;;;;;;;;;;;4993946;28;19913;-84
2021/11/11 16:42:03;;;;;;;;;;;;;;;;;;5008122;28;19917;-83
2021/11/11 16:44:29;;;;;;;;;;;;;;;;;;5005186;28;19917;-85
2021/11/11 16:46:56;;;;;;;;;;;;;;;;;;5007440;28;21541;-84
2021/11/11 16:49:22;;;;;;;;;;;;;;;;;;5008337;28;19916;-84
2021/11/11 16:51:48;;;;;;;;;;;;;;;;;;5009301;28;21374;-84
2021/11/11 16:54:14;;;;;;;;;;;;;;;;;;5005959;28;19920;-84
2021/11/11 16:56:40;;;;;;;;;;;;;;;;;;5006483;28;19944;-84
2021/11/11 16:59:06;;;;;;;;;;;;;;;;;;5006598;28;19917;-85
2021/11/11 17:01:32;;;;;;;;;;;;;;;;;;5006407;28;19932;-83
2021/11/11 17:03:58;;;;;;;;;;;;;;;;;;5026490;28;19928;-82
2021/11/11 17:06:24;;;;;;;;;;;;;;;;;;5053912;28;19912;-81
2021/11/11 17:08:51;;;;;;;;;;;;;;;;;;5051901;28;19924;-84
2021/11/11 17:11:17;;;;;;;;;;;;;;;;;;5055980;28;19916;-83
2021/11/11 17:13:44;;;;;;;;;;;;;;;;;;5056627;28;19916;-82
2021/11/11 17:16:11;;;;;;;;;;;;;;;;;;5057318;28;20009;-82
2021/11/11 17:18:37;;;;;;;;;;;;;;;;;;5058087;28;19931;-81
2021/11/11 17:21:03;;;;;;;;;;;;;;;;;;5057750;28;19916;-83
2021/11/11 17:23:35;;;;;;;;;;;;;;;;;;5058617;28;19958;-82
2021/11/11 17:26:17;;;;;;;;;;;;;;;;;;5056511;28;19966;-81
2021/11/11 17:28:43;;;;;;;;;;;;;;;;;;5055391;28;19912;-83
2021/11/11 17:31:09;;;;;;;;;;;;;;;;;;5042569;28;19934;-85
2021/11/11 17:33:35;;;;;;;;;;;;;;;;;;5042324;28;19912;-82
2021/11/11 17:36:01;;;;;;;;;;;;;;;;;;5052686;28;19920;-83
2021/11/11 17:38:27;;;;;;;;;;;;;;;;;;5061085;28;20611;-83
2021/11/11 17:40:54;;;;;;;;;;;;;;;;;;5060320;28;20031;-83
2021/11/11 17:43:20;;;;;;;;;;;;;;;;;;5039175;28;19919;-83
2021/11/11 17:48:31;;;;;;;;;;;;;;;;;;5056522;28;19994;-82
2021/11/11 17:51:00;;;;;;;;;;;;;;;;;;5055279;28;20754;-85
2021/11/11 17:53:30;;;;;;;;;;;;;;;;;;5040894;28;19948;-85
2021/11/11 17:55:58;;;;;;;;;;;;;;;;;;5052446;28;19919;-84
2021/11/11 17:58:24;;;;;;;;;;;;;;;;;;5057582;28;19920;-87
2021/11/11 18:00:50;;;;;;;;;;;;;;;;;;5053642;28;19912;-85
2021/11/11 18:03:19;;;;;;;;;;;;;;;;;;5054509;28;19942;-83
2021/11/11 18:05:45;;;;;;;;;;;;;;;;;;5061149;28;19916;-86
2021/11/11 18:10:38;;;;;;;;;;;;;;;;;;5056136;28;20100;-82
2021/11/11 18:13:11;;;;;;;;;;;;;;;;;;5059363;28;19916;-82
2021/11/11 18:15:39;;;;;;;;;;;;;;;;;;5054929;28;19916;-82
2021/11/11 18:18:05;;;;;;;;;;;;;;;;;;5059539;28;19924;-83
2021/11/11 18:20:32;;;;;;;;;;;;;;;;;;5058316;28;20392;-83
2021/11/11 18:22:57;;;;;;;;;;;;;;;;;;5060568;28;19920;-82
2021/11/11 18:25:24;;;;;;;;;;;;;;;;;;5058248;28;19912;-83
2021/11/11 18:27:50;;;;;;;;;;;;;;;;;;5059867;28;19923;-82
2021/11/11 18:30:29;;;;;;;;;;;;;;;;;;5060966;28;19916;-81
2021/11/11 18:35:37;;;;;;;;;;;;;;;;;;5057341;28;19908;-81
2021/11/11 18:38:03;;;;;;;;;;;;;;;;;;5060037;28;19920;-81
2021/11/11 18:40:29;;;;;;;;;;;;;;;;;;5055795;28;19912;-82
2021/11/11 18:42:55;;;;;;;;;;;;;;;;;;5057645;28;19924;-82
2021/11/11 18:45:27;;;;;;;;;;;;;;;;;;5060748;28;19923;-83
2021/11/11 18:47:58;;;;;;;;;;;;;;;;;;5061251;28;19965;-82
2021/11/11 18:50:24;;;;;;;;;;;;;;;;;;5060947;28;20011;-82
2021/11/11 18:52:49;;;;;;;;;;;;;;;;;;5061822;28;20003;-82
2021/11/11 18:55:15;;;;;;;;;;;;;;;;;;5061271;28;19916;-82
2021/11/11 18:57:41;;;;;;;;;;;;;;;;;;5061176;28;19924;-82
2021/11/11 19:00:08;;;;;;;;;;;;;;;;;;5056984;28;19927;-82
2021/11/11 19:02:34;;;;;;;;;;;;;;;;;;5051331;28;20335;-82
2021/11/11 19:07:30;;;;;;;;;;;;;;;;;;5059738;28;20476;-82
2021/11/11 19:09:56;;;;;;;;;;;;;;;;;;5060635;28;19916;-83
2021/11/11 19:12:31;;;;;;;;;;;;;;;;;;5058071;28;20132;-82
2021/11/11 19:15:02;;;;;;;;;;;;;;;;;;5059385;28;20003;-82
2021/11/11 19:17:33;;;;;;;;;;;;;;;;;;5060754;28;20403;-82
2021/11/11 19:20:01;;;;;;;;;;;;;;;;;;5060648;28;19922;-83
2021/11/11 19:22:27;;;;;;;;;;;;;;;;;;5059984;28;19912;-82
2021/11/11 19:24:53;;;;;;;;;;;;;;;;;;5058998;28;19920;-81
2021/11/11 19:27:19;;;;;;;;;;;;;;;;;;5059794;28;19913;-82
2021/11/11 19:29:45;;;;;;;;;;;;;;;;;;5061616;28;19967;-83
2021/11/11 19:32:12;;;;;;;;;;;;;;;;;;5052223;28;20385;-82
2021/11/11 19:50:07;;;;;;;;;;;;;;;;;;5024355;28;19918;-82
2021/11/11 19:52:52;;;;;;;;;;;;;;;;;;5022405;28;19913;-82
2021/11/11 20:10:17;;;;;;;;;;;;;;;;;;5026527;28;19928;-82
2021/11/11 20:40:14;;;;;;;;;;;;;;;;;;4950920;28;20643;-84
2021/11/11 20:43:06;;;;;;;;;;;;;;;;;;4955283;28;19979;-83
2021/11/11 20:48:13;;;;;;;;;;;;;;;;;;4954927;28;20441;-83
2021/11/11 21:04:20;;;;;;;;;;;;;;;;;;4968541;28;19921;-83
2021/11/11 21:06:56;;;;;;;;;;;;;;;;;;4953194;28;20360;-83
2021/11/11 21:19:20;;;;;;;;;;;;;;;;;;4985035;28;19918;-82
2021/11/11 21:21:46;;;;;;;;;;;;;;;;;;4988505;28;19917;-83
2021/11/11 21:24:11;;;;;;;;;;;;;;;;;;4987565;28;20060;-82
2021/11/11 21:26:37;;;;;;;;;;;;;;;;;;4984119;28;19918;-83
2021/11/11 21:29:04;;;;;;;;;;;;;;;;;;4990031;28;19914;-83
2021/11/11 21:31:31;;;;;;;;;;;;;;;;;;5045194;28;19912;-83
2021/11/11 21:34:02;;;;;;;;;;;;;;;;;;5049835;28;20632;-87
2021/11/11 21:36:52;;;;;;;;;;;;;;;;;;5055365;28;19931;-84
2021/11/11 21:39:30;;;;;;;;;;;;;;;;;;5054857;28;19925;-86
2021/11/11 21:42:00;;;;;;;;;;;;;;;;;;5054036;28;20486;-85
2021/11/11 21:44:27;;;;;;;;;;;;;;;;;;5051567;28;20461;-85
2021/11/11 21:46:53;;;;;;;;;;;;;;;;;;5056172;28;19946;-84
2021/11/11 21:49:20;;;;;;;;;;;;;;;;;;5058878;28;19913;-82
2021/11/11 21:51:46;;;;;;;;;;;;;;;;;;5057767;28;20572;-83
2021/11/11 21:54:17;;;;;;;;;;;;;;;;;;5058864;28;19999;-84
2021/11/11 21:56:57;;;;;;;;;;;;;;;;;;5057392;28;19913;-83
2021/11/11 21:59:28;;;;;;;;;;;;;;;;;;5059962;28;19920;-83
2021/11/11 22:34:01;;;;;;;;;;;;;;;;;;5005885;28;20348;-83
2021/11/11 22:36:27;;;;;;;;;;;;;;;;;;5003640;28;19914;-83
2021/11/11 22:38:53;;;;;;;;;;;;;;;;;;4999501;28;20365;-83
2021/11/11 22:41:20;;;;;;;;;;;;;;;;;;5003279;28;20651;-82
2021/11/11 22:43:46;;;;;;;;;;;;;;;;;;5003774;28;20021;-83
2021/11/11 22:46:12;;;;;;;;;;;;;;;;;;5002651;28;19944;-84
2021/11/11 22:48:39;;;;;;;;;;;;;;;;;;5001361;28;20652;-83
2021/11/11 22:51:07;;;;;;;;;;;;;;;;;;5001596;28;19952;-83